createdAt,value
2018-09-09T00:00:54.207Z,97.90
2018-09-09T00:01:54.182Z,97.80
2018-09-09T00:02:54.163Z,97.71
2018-09-09T00:03:54.142Z,97.61
2018-09-09T00:04:54.121Z,97.80
2018-09-09T00:05:54.104Z,98.09
2018-09-09T00:06:54.080Z,98.18
2018-09-09T00:07:54.060Z,97.99
2018-09-09T00:08:54.041Z,98.18
2018-09-09T00:09:54.032Z,98.38
2018-09-09T00:10:53.999Z,97.52
2018-09-09T00:11:53.977Z,97.99
2018-09-09T00:12:54.706Z,97.99
2018-09-09T00:13:53.936Z,97.99
2018-09-09T00:14:53.916Z,97.99
2018-09-09T00:15:53.894Z,98.38
2018-09-09T00:16:53.875Z,97.71
2018-09-09T00:17:53.853Z,98.09
2018-09-09T00:18:53.832Z,98.18
2018-09-09T00:19:53.814Z,98.18
2018-09-09T00:20:53.791Z,97.99
2018-09-09T00:21:53.772Z,97.90
2018-09-09T00:22:53.750Z,97.71
2018-09-09T00:23:53.730Z,98.38
2018-09-09T00:24:53.710Z,97.71
2018-09-09T00:25:53.688Z,97.71
2018-09-09T00:26:53.669Z,98.38
2018-09-09T00:27:53.648Z,97.61
2018-09-09T00:28:53.626Z,97.71
2018-09-09T00:29:53.609Z,96.94
2018-09-09T00:30:53.585Z,96.47
2018-09-09T00:31:53.565Z,96.99
2018-09-09T00:32:53.544Z,96.70
2018-09-09T00:33:55.026Z,96.84
2018-09-09T00:34:53.503Z,96.42
2018-09-09T00:35:53.484Z,96.56
2018-09-09T00:36:53.464Z,96.32
2018-09-09T00:37:53.441Z,96.32
2018-09-09T00:38:53.421Z,95.65
2018-09-09T00:39:53.401Z,95.46
2018-09-09T00:40:53.378Z,94.89
2018-09-09T00:41:53.357Z,94.79
2018-09-09T00:42:53.340Z,93.93
2018-09-09T00:43:53.316Z,93.26
2018-09-09T00:44:53.295Z,93.45
2018-09-09T00:45:53.275Z,93.07
2018-09-09T00:46:53.254Z,92.97
2018-09-09T00:47:53.234Z,92.69
2018-09-09T00:48:53.212Z,92.40
2018-09-09T00:49:53.192Z,92.69
2018-09-09T00:50:53.170Z,93.65
2018-09-09T00:51:53.150Z,92.88
2018-09-09T00:52:53.129Z,93.65
2018-09-09T00:53:53.108Z,93.55
2018-09-09T00:54:53.088Z,93.84
2018-09-09T00:55:53.067Z,93.26
2018-09-09T00:56:53.045Z,93.07
2018-09-09T00:57:53.029Z,92.50
2018-09-09T00:58:53.004Z,92.11
2018-09-09T00:59:52.984Z,91.54
2018-09-09T01:00:52.961Z,91.54
2018-09-09T01:01:52.941Z,91.25
2018-09-09T01:02:52.921Z,91.06
2018-09-09T01:03:52.899Z,90.97
2018-09-09T01:04:52.878Z,91.45
2018-09-09T01:05:52.856Z,91.35
2018-09-09T01:06:52.835Z,91.35
2018-09-09T01:07:52.817Z,91.25
2018-09-09T01:08:52.793Z,91.74
2018-09-09T01:09:52.772Z,92.02
2018-09-09T01:10:52.751Z,91.93
2018-09-09T01:11:54.232Z,92.02
2018-09-09T01:12:52.707Z,92.11
2018-09-09T01:13:52.687Z,91.93
2018-09-09T01:14:52.666Z,92.11
2018-09-09T01:15:52.645Z,91.54
2018-09-09T01:16:52.622Z,91.74
2018-09-09T01:17:52.603Z,91.64
2018-09-09T01:18:52.581Z,92.79
2018-09-09T01:19:52.560Z,92.21
2018-09-09T01:20:52.549Z,92.02
2018-09-09T01:21:52.518Z,92.11
2018-09-09T01:22:52.496Z,92.21
2018-09-09T01:23:52.476Z,92.40
2018-09-09T01:24:52.453Z,91.25
2018-09-09T01:25:52.432Z,91.93
2018-09-09T01:26:52.414Z,91.45
2018-09-09T01:27:52.393Z,91.45
2018-09-09T01:28:52.370Z,90.49
2018-09-09T01:29:52.348Z,91.06
2018-09-09T01:30:52.327Z,90.11
2018-09-09T01:31:52.306Z,89.30
2018-09-09T01:32:52.285Z,89.68
2018-09-09T01:33:52.264Z,88.73
2018-09-09T01:34:52.242Z,88.73
2018-09-09T01:35:52.221Z,88.25
2018-09-09T01:36:52.199Z,88.54
2018-09-09T01:37:52.182Z,87.68
2018-09-09T01:38:52.157Z,87.48
2018-09-09T01:39:52.136Z,87.72
2018-09-09T01:40:52.114Z,87.96
2018-09-09T01:41:52.095Z,88.54
2018-09-09T01:42:52.073Z,88.48
2018-09-09T01:43:52.053Z,88.29
2018-09-09T01:44:52.030Z,89.01
2018-09-09T01:45:52.010Z,88.29
2018-09-09T01:46:51.987Z,89.06
2018-09-09T01:47:51.968Z,88.92
2018-09-09T01:48:51.947Z,88.82
2018-09-09T01:49:53.424Z,88.92
2018-09-09T01:50:51.902Z,88.25
2018-09-09T01:51:51.883Z,88.34
2018-09-09T01:52:51.860Z,88.34
2018-09-09T01:53:51.840Z,88.63
2018-09-09T01:54:51.818Z,88.54
2018-09-09T01:55:51.797Z,88.82
2018-09-09T01:56:51.774Z,88.82
2018-09-09T01:57:51.754Z,88.73
2018-09-09T01:58:51.732Z,89.11
2018-09-09T01:59:51.711Z,88.82
2018-09-09T02:00:51.690Z,88.54
2018-09-09T02:01:51.672Z,88.63
2018-09-09T02:02:51.650Z,88.82
2018-09-09T02:03:51.626Z,88.25
2018-09-09T02:04:51.605Z,88.63
2018-09-09T02:05:51.583Z,88.15
2018-09-09T02:06:51.561Z,87.87
2018-09-09T02:07:51.540Z,87.01
2018-09-09T02:08:51.518Z,87.20
2018-09-09T02:09:51.500Z,85.77
2018-09-09T02:10:51.477Z,85.19
2018-09-09T02:11:51.456Z,85.29
2018-09-09T02:12:51.437Z,85.38
2018-09-09T02:13:51.413Z,85.19
2018-09-09T02:14:51.391Z,85.48
2018-09-09T02:15:51.371Z,85.25
2018-09-09T02:16:51.349Z,85.15
2018-09-09T02:17:51.328Z,84.10
2018-09-09T02:18:51.305Z,83.81
2018-09-09T02:19:51.284Z,83.91
2018-09-09T02:20:51.262Z,83.18
2018-09-09T02:21:51.241Z,83.57
2018-09-09T02:22:51.220Z,83.47
2018-09-09T02:23:51.201Z,83.81
2018-09-09T02:24:51.177Z,83.72
2018-09-09T02:25:51.208Z,84.43
2018-09-09T02:26:51.886Z,83.86
2018-09-09T02:27:51.114Z,84.14
2018-09-09T02:28:51.092Z,84.14
2018-09-09T02:29:51.071Z,84.33
2018-09-09T02:30:51.050Z,83.47
2018-09-09T02:31:51.029Z,83.18
2018-09-09T02:32:51.007Z,82.90
2018-09-09T02:33:50.984Z,83.47
2018-09-09T02:34:50.965Z,83.67
2018-09-09T02:35:50.943Z,84.14
2018-09-09T02:36:50.920Z,83.95
2018-09-09T02:37:50.899Z,84.81
2018-09-09T02:38:50.879Z,84.33
2018-09-09T02:39:50.892Z,83.86
2018-09-09T02:40:50.836Z,84.62
2018-09-09T02:41:50.815Z,83.95
2018-09-09T02:42:50.794Z,84.23
2018-09-09T02:43:50.861Z,84.05
2018-09-09T02:44:50.749Z,83.86
2018-09-09T02:45:50.728Z,84.05
2018-09-09T02:46:50.708Z,84.39
2018-09-09T02:47:50.687Z,84.20
2018-09-09T02:48:50.663Z,84.00
2018-09-09T02:49:50.644Z,84.20
2018-09-09T02:50:50.623Z,84.00
2018-09-09T02:51:50.602Z,84.10
2018-09-09T02:52:50.579Z,84.10
2018-09-09T02:53:50.562Z,83.76
2018-09-09T02:54:50.543Z,83.95
2018-09-09T02:55:50.516Z,83.95
2018-09-09T02:56:50.493Z,83.38
2018-09-09T02:57:50.472Z,83.86
2018-09-09T02:58:50.450Z,84.62
2018-09-09T02:59:50.429Z,85.29
2018-09-09T03:00:50.406Z,86.05
2018-09-09T03:01:50.386Z,85.96
2018-09-09T03:02:50.363Z,86.34
2018-09-09T03:03:50.342Z,86.91
2018-09-09T03:04:50.324Z,86.91
2018-09-09T03:05:50.299Z,86.34
2018-09-09T03:06:50.278Z,86.63
2018-09-09T03:07:50.257Z,87.68
2018-09-09T03:08:50.234Z,87.06
2018-09-09T03:09:50.213Z,86.82
2018-09-09T03:10:50.192Z,86.05
2018-09-09T03:11:50.172Z,86.05
2018-09-09T03:12:50.150Z,86.24
2018-09-09T03:13:50.128Z,85.34
2018-09-09T03:14:50.107Z,85.34
2018-09-09T03:15:50.087Z,84.86
2018-09-09T03:16:50.068Z,84.86
2018-09-09T03:17:50.041Z,84.58
2018-09-09T03:18:50.021Z,84.48
2018-09-09T03:19:49.999Z,84.29
2018-09-09T03:20:49.977Z,83.91
2018-09-09T03:21:49.956Z,83.62
2018-09-09T03:22:49.935Z,83.53
2018-09-09T03:23:49.914Z,83.14
2018-09-09T03:24:49.891Z,83.14
2018-09-09T03:25:49.871Z,83.24
2018-09-09T03:26:49.849Z,83.34
2018-09-09T03:27:49.829Z,83.24
2018-09-09T03:28:49.877Z,82.86
2018-09-09T03:29:49.785Z,82.76
2018-09-09T03:30:49.765Z,83.05
2018-09-09T03:31:49.743Z,83.05
2018-09-09T03:32:49.721Z,83.05
2018-09-09T03:33:49.700Z,82.57
2018-09-09T03:34:49.681Z,82.95
2018-09-09T03:35:49.658Z,82.57
2018-09-09T03:36:49.636Z,82.76
2018-09-09T03:37:49.616Z,82.76
2018-09-09T03:38:49.595Z,82.57
2018-09-09T03:39:49.573Z,82.09
2018-09-09T03:40:49.554Z,80.76
2018-09-09T03:41:49.529Z,79.33
2018-09-09T03:42:49.509Z,79.61
2018-09-09T03:43:49.488Z,78.75
2018-09-09T03:44:52.469Z,78.66
2018-09-09T03:45:49.443Z,78.09
2018-09-09T03:46:49.422Z,77.99
2018-09-09T03:47:49.402Z,77.89
2018-09-09T03:48:49.380Z,77.13
2018-09-09T03:49:49.358Z,76.56
2018-09-09T03:50:50.089Z,76.37
2018-09-09T03:51:49.320Z,75.51
2018-09-09T03:52:49.293Z,75.89
2018-09-09T03:53:49.274Z,76.65
2018-09-09T03:54:49.251Z,76.46
2018-09-09T03:55:49.229Z,76.75
2018-09-09T03:56:49.207Z,76.75
2018-09-09T03:57:49.192Z,77.70
2018-09-09T03:58:49.166Z,76.94
2018-09-09T03:59:49.146Z,76.46
2018-09-09T04:00:49.122Z,75.60
2018-09-09T04:01:49.102Z,75.32
2018-09-09T04:02:49.079Z,74.93
2018-09-09T04:03:49.058Z,75.32
2018-09-09T04:04:49.042Z,74.84
2018-09-09T04:05:49.017Z,73.88
2018-09-09T04:06:48.993Z,73.88
2018-09-09T04:07:48.975Z,73.50
2018-09-09T04:08:48.950Z,73.50
2018-09-09T04:09:48.929Z,73.41
2018-09-09T04:10:48.908Z,73.60
2018-09-09T04:11:48.886Z,74.27
2018-09-09T04:12:48.864Z,74.27
2018-09-09T04:13:48.843Z,73.50
2018-09-09T04:14:48.821Z,73.32
2018-09-09T04:15:48.802Z,72.93
2018-09-09T04:16:48.778Z,73.50
2018-09-09T04:17:48.757Z,73.22
2018-09-09T04:18:48.736Z,74.08
2018-09-09T04:19:48.714Z,73.98
2018-09-09T04:20:48.693Z,73.32
2018-09-09T04:21:48.671Z,73.79
2018-09-09T04:22:48.653Z,73.12
2018-09-09T04:23:48.629Z,73.32
2018-09-09T04:24:48.607Z,73.22
2018-09-09T04:25:48.586Z,71.31
2018-09-09T04:26:48.563Z,70.64
2018-09-09T04:27:48.542Z,69.87
2018-09-09T04:28:48.521Z,69.87
2018-09-09T04:29:48.498Z,69.78
2018-09-09T04:30:48.499Z,69.46
2018-09-09T04:31:48.456Z,69.87
2018-09-09T04:32:48.434Z,68.70
2018-09-09T04:33:48.413Z,69.02
2018-09-09T04:34:48.391Z,67.58
2018-09-09T04:35:48.371Z,67.40
2018-09-09T04:36:48.347Z,67.68
2018-09-09T04:37:48.329Z,68.26
2018-09-09T04:38:48.305Z,68.06
2018-09-09T04:39:48.283Z,67.40
2018-09-09T04:40:48.260Z,67.87
2018-09-09T04:41:48.239Z,68.63
2018-09-09T04:42:48.218Z,69.84
2018-09-09T04:43:48.196Z,70.22
2018-09-09T04:44:48.173Z,71.18
2018-09-09T04:45:48.153Z,71.02
2018-09-09T04:46:48.131Z,70.89
2018-09-09T04:47:48.110Z,70.16
2018-09-09T04:48:48.088Z,70.13
2018-09-09T04:49:48.066Z,69.56
2018-09-09T04:50:48.047Z,68.32
2018-09-09T04:51:48.023Z,67.40
2018-09-09T04:52:48.005Z,66.25
2018-09-09T04:53:47.980Z,66.72
2018-09-09T04:54:47.957Z,66.44
2018-09-09T04:55:47.936Z,65.48
2018-09-09T04:56:47.915Z,65.77
2018-09-09T04:57:47.894Z,66.82
2018-09-09T04:58:47.871Z,66.72
2018-09-09T04:59:47.850Z,66.82
2018-09-09T05:00:47.827Z,67.21
2018-09-09T05:01:47.805Z,66.92
2018-09-09T05:02:47.786Z,67.30
2018-09-09T05:03:47.767Z,67.40
2018-09-09T05:04:47.741Z,67.21
2018-09-09T05:05:48.475Z,66.25
2018-09-09T05:06:47.698Z,66.72
2018-09-09T05:07:47.676Z,66.72
2018-09-09T05:08:47.653Z,66.44
2018-09-09T05:09:47.632Z,66.25
2018-09-09T05:10:47.646Z,66.44
2018-09-09T05:11:47.589Z,66.53
2018-09-09T05:12:47.567Z,66.35
2018-09-09T05:13:47.546Z,66.25
2018-09-09T05:14:47.524Z,66.35
2018-09-09T05:15:47.503Z,66.63
2018-09-09T05:16:47.480Z,66.44
2018-09-09T05:17:47.459Z,66.63
2018-09-09T05:18:47.437Z,66.53
2018-09-09T05:19:47.416Z,66.35
2018-09-09T05:20:47.395Z,66.44
2018-09-09T05:21:48.124Z,65.87
2018-09-09T05:22:47.354Z,66.35
2018-09-09T05:23:47.332Z,66.53
2018-09-09T05:24:47.309Z,66.92
2018-09-09T05:25:47.287Z,67.30
2018-09-09T05:26:47.271Z,67.11
2018-09-09T05:27:47.244Z,67.30
2018-09-09T05:28:47.223Z,66.63
2018-09-09T05:29:47.201Z,66.63
2018-09-09T05:30:47.180Z,66.63
2018-09-09T05:31:47.160Z,66.53
2018-09-09T05:32:47.136Z,66.53
2018-09-09T05:33:47.115Z,66.35
2018-09-09T05:34:47.094Z,67.11
2018-09-09T05:35:47.074Z,67.68
2018-09-09T05:36:47.055Z,67.87
2018-09-09T05:37:47.031Z,67.87
2018-09-09T05:38:47.008Z,67.87
2018-09-09T05:39:46.991Z,68.54
2018-09-09T05:40:46.965Z,68.26
2018-09-09T05:41:46.944Z,68.16
2018-09-09T05:42:46.923Z,67.97
2018-09-09T05:43:46.901Z,68.06
2018-09-09T05:44:46.993Z,67.58
2018-09-09T05:45:46.859Z,67.58
2018-09-09T05:46:46.838Z,67.58
2018-09-09T05:47:46.817Z,66.82
2018-09-09T05:48:46.794Z,66.82
2018-09-09T05:49:46.773Z,66.53
2018-09-09T05:50:46.753Z,66.63
2018-09-09T05:51:46.732Z,66.53
2018-09-09T05:52:46.710Z,66.28
2018-09-09T05:53:46.733Z,65.61
2018-09-09T05:54:46.666Z,65.80
2018-09-09T05:55:46.646Z,65.71
2018-09-09T05:56:46.624Z,64.75
2018-09-09T05:57:46.660Z,65.04
2018-09-09T05:58:46.582Z,64.94
2018-09-09T05:59:46.560Z,64.94
2018-09-09T06:00:46.539Z,65.23
2018-09-09T06:01:46.519Z,64.94
2018-09-09T06:02:46.497Z,65.61
2018-09-09T06:03:46.476Z,65.52
2018-09-09T06:04:47.205Z,65.52
2018-09-09T06:05:46.433Z,65.90
2018-09-09T06:06:46.412Z,65.71
2018-09-09T06:07:46.395Z,66.50
2018-09-09T06:08:46.372Z,66.60
2018-09-09T06:09:46.349Z,66.41
2018-09-09T06:10:46.327Z,66.70
2018-09-09T06:11:46.306Z,66.60
2018-09-09T06:12:46.286Z,66.79
2018-09-09T06:13:46.263Z,66.60
2018-09-09T06:14:46.243Z,67.27
2018-09-09T06:15:46.223Z,67.55
2018-09-09T06:16:46.213Z,67.75
2018-09-09T06:17:46.180Z,68.41
2018-09-09T06:18:46.159Z,68.61
2018-09-09T06:19:46.145Z,68.70
2018-09-09T06:20:46.116Z,68.93
2018-09-09T06:21:46.095Z,69.02
2018-09-09T06:22:46.076Z,69.79
2018-09-09T06:23:46.054Z,69.89
2018-09-09T06:24:46.034Z,74.95
2018-09-09T06:25:46.013Z,78.11
2018-09-09T06:26:45.991Z,80.30
2018-09-09T06:27:45.972Z,79.93
2018-09-09T06:28:45.949Z,79.64
2018-09-09T06:29:45.928Z,79.64
2018-09-09T06:30:45.908Z,80.79
2018-09-09T06:31:45.889Z,81.88
2018-09-09T06:32:45.866Z,82.03
2018-09-09T06:33:45.941Z,82.54
2018-09-09T06:34:45.825Z,82.74
2018-09-09T06:35:45.808Z,82.64
2018-09-09T06:36:46.536Z,83.31
2018-09-09T06:37:45.764Z,83.69
2018-09-09T06:38:45.744Z,83.60
2018-09-09T06:39:45.723Z,85.89
2018-09-09T06:40:45.702Z,86.66
2018-09-09T06:41:45.681Z,87.04
2018-09-09T06:42:45.662Z,88.57
2018-09-09T06:43:45.641Z,90.72
2018-09-09T06:44:45.619Z,90.82
2018-09-09T06:45:45.599Z,90.15
2018-09-09T06:46:45.582Z,91.97
2018-09-09T06:47:45.559Z,92.35
2018-09-09T06:48:45.538Z,93.59
2018-09-09T06:49:45.518Z,93.40
2018-09-09T06:50:45.499Z,95.03
2018-09-09T06:51:45.477Z,94.84
2018-09-09T06:52:45.458Z,95.03
2018-09-09T06:53:45.440Z,94.93
2018-09-09T06:54:45.439Z,95.27
2018-09-09T06:55:45.397Z,95.46
2018-09-09T06:56:45.376Z,95.84
2018-09-09T06:57:45.356Z,95.94
2018-09-09T06:58:45.336Z,95.46
2018-09-09T06:59:45.317Z,95.84
2018-09-09T07:00:45.296Z,96.70
2018-09-09T07:01:45.276Z,97.18
2018-09-09T07:02:45.257Z,97.09
2018-09-09T07:03:45.236Z,97.75
2018-09-09T07:04:45.216Z,97.04
2018-09-09T07:05:45.195Z,98.33
2018-09-09T07:06:45.176Z,98.52
2018-09-09T07:07:45.155Z,98.57
2018-09-09T07:08:45.136Z,98.67
2018-09-09T07:09:45.116Z,99.15
2018-09-09T07:10:45.152Z,99.72
2018-09-09T07:11:45.300Z,99.15
2018-09-09T07:12:45.056Z,99.43
2018-09-09T07:13:45.037Z,99.05
2018-09-09T07:14:45.019Z,99.72
2018-09-09T07:15:44.998Z,98.96
2018-09-09T07:16:44.981Z,99.99
2018-09-09T07:17:44.957Z,99.99
2018-09-09T07:18:44.938Z,99.99
2018-09-09T07:19:44.920Z,99.99
2018-09-09T07:20:44.897Z,99.99
2018-09-09T07:21:44.878Z,99.99
2018-09-09T07:22:44.920Z,99.99
2018-09-09T07:23:44.841Z,99.99
2018-09-09T07:24:44.822Z,99.99
2018-09-09T07:25:44.800Z,99.99
2018-09-09T07:26:44.779Z,99.99
2018-09-09T07:27:44.761Z,99.99
2018-09-09T07:28:44.740Z,99.99
2018-09-09T07:29:44.720Z,99.99
2018-09-09T07:30:44.702Z,99.99
2018-09-09T07:31:44.690Z,99.99
2018-09-09T07:32:44.661Z,99.99
2018-09-09T07:33:44.643Z,99.99
2018-09-09T07:34:44.627Z,99.99
2018-09-09T07:35:44.619Z,99.99
2018-09-09T07:36:44.583Z,99.99
2018-09-09T07:37:44.565Z,99.99
2018-09-09T07:38:44.546Z,99.99
2018-09-09T07:39:44.527Z,99.99
2018-09-09T07:40:45.256Z,99.99
2018-09-09T07:41:44.486Z,99.99
2018-09-09T07:42:44.467Z,99.99
2018-09-09T07:43:44.448Z,99.99
2018-09-09T07:44:44.427Z,99.99
2018-09-09T07:45:44.409Z,99.99
2018-09-09T07:46:44.389Z,99.99
2018-09-09T07:47:44.369Z,99.99
2018-09-09T07:48:44.349Z,99.99
2018-09-09T07:49:44.330Z,99.99
2018-09-09T07:50:44.382Z,99.99
2018-09-09T07:51:44.292Z,99.99
2018-09-09T07:52:44.272Z,99.99
2018-09-09T07:53:44.253Z,99.99
2018-09-09T07:54:44.233Z,99.99
2018-09-09T07:55:44.214Z,99.99
2018-09-09T07:56:44.194Z,99.99
2018-09-09T07:57:44.176Z,99.99
2018-09-09T07:58:44.157Z,99.99
2018-09-09T07:59:44.138Z,99.99
2018-09-09T08:00:44.119Z,99.99
2018-09-09T08:01:44.099Z,99.99
2018-09-09T08:02:44.080Z,99.99
2018-09-09T08:03:44.060Z,99.99
2018-09-09T08:04:44.042Z,99.99
2018-09-09T08:05:44.022Z,99.99
2018-09-09T08:06:44.003Z,99.99
2018-09-09T08:07:43.985Z,99.99
2018-09-09T08:08:43.965Z,99.99
2018-09-09T08:09:43.945Z,99.99
2018-09-09T08:10:43.928Z,99.99
2018-09-09T08:11:44.660Z,99.99
2018-09-09T08:12:43.889Z,99.99
2018-09-09T08:13:43.872Z,99.99
2018-09-09T08:14:43.852Z,99.99
2018-09-09T08:15:43.840Z,99.99
2018-09-09T08:16:43.813Z,99.99
2018-09-09T08:17:43.795Z,99.99
2018-09-09T08:18:43.776Z,99.99
2018-09-09T08:19:43.758Z,99.99
2018-09-09T08:20:43.739Z,99.99
2018-09-09T08:21:43.720Z,99.99
2018-09-09T08:22:43.701Z,99.99
2018-09-09T08:23:43.745Z,99.99
2018-09-09T08:24:43.663Z,99.99
2018-09-09T08:25:43.645Z,99.99
2018-09-09T08:26:43.627Z,99.99
2018-09-09T08:27:43.607Z,99.99
2018-09-09T08:28:43.587Z,99.99
2018-09-09T08:29:43.569Z,99.99
2018-09-09T08:30:43.551Z,99.99
2018-09-09T08:31:43.533Z,99.99
2018-09-09T08:32:43.513Z,99.99
2018-09-09T08:33:45.747Z,99.99
2018-09-09T08:34:43.539Z,99.99
2018-09-09T08:35:43.458Z,99.99
2018-09-09T08:36:43.438Z,99.99
2018-09-09T08:37:43.420Z,99.99
2018-09-09T08:38:43.403Z,99.99
2018-09-09T08:39:44.134Z,99.99
2018-09-09T08:40:43.365Z,99.99
2018-09-09T08:41:43.347Z,99.99
2018-09-09T08:42:43.328Z,99.99
2018-09-09T08:43:43.310Z,99.99
2018-09-09T08:44:43.290Z,99.99
2018-09-09T08:45:43.273Z,99.99
2018-09-09T08:46:43.254Z,99.99
2018-09-09T08:47:43.236Z,99.99
2018-09-09T08:48:43.217Z,99.99
2018-09-09T08:49:43.201Z,99.99
2018-09-09T08:50:43.181Z,99.99
2018-09-09T08:51:43.183Z,99.99
2018-09-09T08:52:43.144Z,99.99
2018-09-09T08:53:43.127Z,99.99
2018-09-09T08:54:43.109Z,99.99
2018-09-09T08:55:43.091Z,99.99
2018-09-09T08:56:43.072Z,99.99
2018-09-09T08:57:43.142Z,99.99
2018-09-09T08:58:43.035Z,99.99
2018-09-09T08:59:43.019Z,99.99
2018-09-09T09:00:42.999Z,99.99
2018-09-09T09:01:42.981Z,99.99
2018-09-09T09:02:42.963Z,99.99
2018-09-09T09:03:42.947Z,99.99
2018-09-09T09:04:42.928Z,99.99
2018-09-09T09:05:42.911Z,99.99
2018-09-09T09:06:42.892Z,99.99
2018-09-09T09:07:42.902Z,99.99
2018-09-09T09:08:42.856Z,99.99
2018-09-09T09:09:42.839Z,99.99
2018-09-09T09:10:42.822Z,99.99
2018-09-09T09:11:42.804Z,99.99
2018-09-09T09:12:42.788Z,99.99
2018-09-09T09:13:42.767Z,99.99
2018-09-09T09:14:42.781Z,99.99
2018-09-09T09:15:42.734Z,99.99
2018-09-09T09:16:42.714Z,99.99
2018-09-09T09:17:42.696Z,99.99
2018-09-09T09:18:42.722Z,99.99
2018-09-09T09:19:42.661Z,99.99
2018-09-09T09:20:42.778Z,99.99
2018-09-09T09:21:42.626Z,99.99
2018-09-09T09:22:42.608Z,99.99
2018-09-09T09:23:42.606Z,99.99
2018-09-09T09:24:42.571Z,99.99
2018-09-09T09:25:42.554Z,99.99
2018-09-09T09:26:42.537Z,99.99
2018-09-09T09:27:42.519Z,99.99
2018-09-09T09:28:42.501Z,99.99
2018-09-09T09:29:42.484Z,99.99
2018-09-09T09:30:42.542Z,99.99
2018-09-09T09:31:42.452Z,99.99
2018-09-09T09:32:42.431Z,99.99
2018-09-09T09:33:42.413Z,99.99
2018-09-09T09:34:42.397Z,99.99
2018-09-09T09:35:42.379Z,99.99
2018-09-09T09:36:42.361Z,99.99
2018-09-09T09:37:43.845Z,99.99
2018-09-09T09:38:42.324Z,99.99
2018-09-09T09:39:42.308Z,99.99
2018-09-09T09:40:42.289Z,99.99
2018-09-09T09:41:42.273Z,99.99
2018-09-09T09:42:42.256Z,99.99
2018-09-09T09:43:42.237Z,99.99
2018-09-09T09:44:42.263Z,99.99
2018-09-09T09:45:42.203Z,99.99
2018-09-09T09:46:42.186Z,99.99
2018-09-09T09:47:42.169Z,99.99
2018-09-09T09:48:42.155Z,99.88
2018-09-09T09:49:42.132Z,99.93
2018-09-09T09:50:42.116Z,99.99
2018-09-09T09:51:42.099Z,99.99
2018-09-09T09:52:42.081Z,99.93
2018-09-09T09:53:42.062Z,99.55
2018-09-09T09:54:42.045Z,99.55
2018-09-09T09:55:42.030Z,98.68
2018-09-09T09:56:42.011Z,97.24
2018-09-09T09:57:41.994Z,97.47
2018-09-09T09:58:41.977Z,98.44
2018-09-09T09:59:41.962Z,99.99
2018-09-09T10:00:41.942Z,98.92
2018-09-09T10:01:41.925Z,99.99
2018-09-09T10:02:41.909Z,99.60
2018-09-09T10:03:41.965Z,97.19
2018-09-09T10:04:41.875Z,96.70
2018-09-09T10:05:41.859Z,99.21
2018-09-09T10:06:41.842Z,97.86
2018-09-09T10:07:41.824Z,97.77
2018-09-09T10:08:41.810Z,96.99
2018-09-09T10:09:41.791Z,97.24
2018-09-09T10:10:41.773Z,96.80
2018-09-09T10:11:41.757Z,96.12
2018-09-09T10:12:41.738Z,96.32
2018-09-09T10:13:41.722Z,95.93
2018-09-09T10:14:41.706Z,97.19
2018-09-09T10:15:41.689Z,97.19
2018-09-09T10:16:41.673Z,97.19
2018-09-09T10:17:41.655Z,95.93
2018-09-09T10:18:41.639Z,95.84
2018-09-09T10:19:41.623Z,95.69
2018-09-09T10:20:41.604Z,95.98
2018-09-09T10:21:41.588Z,95.88
2018-09-09T10:22:41.573Z,94.96
2018-09-09T10:23:41.578Z,95.45
2018-09-09T10:24:41.537Z,95.74
2018-09-09T10:25:41.521Z,95.64
2018-09-09T10:26:41.507Z,95.93
2018-09-09T10:27:41.489Z,95.54
2018-09-09T10:28:41.474Z,96.99
2018-09-09T10:29:41.455Z,98.87
2018-09-09T10:30:41.437Z,99.55
2018-09-09T10:31:41.421Z,99.16
2018-09-09T10:32:41.413Z,99.45
2018-09-09T10:33:41.387Z,98.20
2018-09-09T10:34:41.371Z,96.66
2018-09-09T10:35:41.355Z,96.46
2018-09-09T10:36:41.337Z,96.75
2018-09-09T10:37:44.325Z,97.52
2018-09-09T10:38:41.305Z,96.84
2018-09-09T10:39:41.289Z,96.84
2018-09-09T10:40:41.271Z,95.88
2018-09-09T10:41:41.255Z,95.79
2018-09-09T10:42:41.238Z,95.74
2018-09-09T10:43:41.222Z,95.98
2018-09-09T10:44:41.205Z,95.01
2018-09-09T10:45:41.189Z,94.82
2018-09-09T10:46:41.210Z,95.21
2018-09-09T10:47:41.158Z,95.79
2018-09-09T10:48:41.140Z,95.64
2018-09-09T10:49:41.122Z,95.16
2018-09-09T10:50:41.105Z,94.77
2018-09-09T10:51:41.090Z,94.48
2018-09-09T10:52:41.072Z,92.84
2018-09-09T10:53:41.055Z,92.94
2018-09-09T10:54:41.040Z,92.60
2018-09-09T10:55:41.023Z,93.27
2018-09-09T10:56:41.007Z,92.60
2018-09-09T10:57:40.991Z,92.02
2018-09-09T10:58:41.014Z,91.77
2018-09-09T10:59:40.957Z,91.92
2018-09-09T11:00:40.941Z,92.25
2018-09-09T11:01:40.924Z,93.71
2018-09-09T11:02:40.908Z,92.74
2018-09-09T11:03:40.891Z,93.51
2018-09-09T11:04:40.874Z,92.55
2018-09-09T11:05:40.859Z,92.74
2018-09-09T11:06:40.845Z,94.29
2018-09-09T11:07:40.826Z,93.41
2018-09-09T11:08:40.809Z,91.58
2018-09-09T11:09:40.794Z,91.77
2018-09-09T11:10:40.779Z,90.81
2018-09-09T11:11:40.761Z,91.82
2018-09-09T11:12:40.777Z,91.63
2018-09-09T11:13:40.730Z,92.01
2018-09-09T11:14:40.714Z,92.25
2018-09-09T11:15:40.698Z,92.65
2018-09-09T11:16:40.681Z,92.65
2018-09-09T11:17:40.666Z,92.25
2018-09-09T11:18:40.649Z,91.87
2018-09-09T11:19:40.633Z,92.45
2018-09-09T11:20:40.617Z,92.65
2018-09-09T11:21:40.602Z,92.93
2018-09-09T11:22:40.585Z,93.85
2018-09-09T11:23:40.570Z,94.53
2018-09-09T11:24:40.558Z,91.53
2018-09-09T11:25:40.574Z,90.66
2018-09-09T11:26:40.522Z,91.24
2018-09-09T11:27:40.507Z,91.33
2018-09-09T11:28:40.491Z,90.80
2018-09-09T11:29:40.474Z,90.90
2018-09-09T11:30:40.458Z,90.51
2018-09-09T11:31:40.444Z,90.99
2018-09-09T11:32:40.429Z,90.99
2018-09-09T11:33:40.411Z,90.95
2018-09-09T11:34:40.400Z,89.59
2018-09-09T11:35:40.381Z,89.89
2018-09-09T11:36:40.363Z,88.53
2018-09-09T11:37:40.348Z,88.73
2018-09-09T11:38:40.333Z,88.05
2018-09-09T11:39:40.317Z,90.08
2018-09-09T11:40:40.421Z,90.66
2018-09-09T11:41:41.036Z,90.37
2018-09-09T11:42:40.271Z,88.87
2018-09-09T11:43:40.255Z,89.06
2018-09-09T11:44:40.238Z,89.93
2018-09-09T11:45:40.223Z,89.78
2018-09-09T11:46:40.207Z,89.49
2018-09-09T11:47:40.194Z,89.88
2018-09-09T11:48:40.177Z,88.62
2018-09-09T11:49:40.161Z,90.36
2018-09-09T11:50:40.147Z,89.49
2018-09-09T11:51:40.131Z,87.46
2018-09-09T11:52:40.114Z,83.78
2018-09-09T11:53:40.100Z,85.33
2018-09-09T11:54:40.085Z,84.27
2018-09-09T11:55:40.069Z,84.94
2018-09-09T11:56:40.053Z,85.24
2018-09-09T11:57:40.037Z,85.24
2018-09-09T11:58:40.022Z,84.84
2018-09-09T11:59:40.007Z,84.94
2018-09-09T12:00:39.991Z,84.27
2018-09-09T12:01:39.976Z,83.01
2018-09-09T12:02:40.711Z,81.65
2018-09-09T12:03:39.945Z,82.33
2018-09-09T12:04:39.930Z,83.01
2018-09-09T12:05:39.919Z,83.01
2018-09-09T12:06:39.904Z,85.04
2018-09-09T12:07:39.885Z,86.10
2018-09-09T12:08:39.869Z,85.24
2018-09-09T12:09:39.861Z,85.14
2018-09-09T12:10:39.838Z,84.94
2018-09-09T12:11:39.824Z,85.28
2018-09-09T12:12:39.808Z,86.15
2018-09-09T12:13:39.828Z,84.79
2018-09-09T12:14:39.777Z,83.15
2018-09-09T12:15:39.763Z,83.25
2018-09-09T12:16:39.747Z,82.95
2018-09-09T12:17:39.732Z,82.51
2018-09-09T12:18:39.715Z,80.09
2018-09-09T12:19:39.700Z,79.76
2018-09-09T12:20:39.686Z,76.60
2018-09-09T12:21:39.671Z,76.79
2018-09-09T12:22:39.655Z,76.99
2018-09-09T12:23:39.709Z,76.70
2018-09-09T12:24:39.624Z,77.76
2018-09-09T12:25:39.609Z,77.67
2018-09-09T12:26:39.594Z,74.66
2018-09-09T12:27:39.579Z,75.24
2018-09-09T12:28:39.614Z,76.70
2018-09-09T12:29:39.549Z,76.31
2018-09-09T12:30:39.534Z,75.92
2018-09-09T12:31:39.520Z,78.05
2018-09-09T12:32:39.590Z,76.60
2018-09-09T12:33:39.489Z,72.83
2018-09-09T12:34:39.474Z,70.11
2018-09-09T12:35:39.459Z,71.56
2018-09-09T12:36:39.443Z,76.41
2018-09-09T12:37:39.433Z,72.05
2018-09-09T12:38:39.414Z,71.28
2018-09-09T12:39:40.150Z,71.56
2018-09-09T12:40:39.384Z,75.09
2018-09-09T12:41:39.369Z,76.35
2018-09-09T12:42:39.354Z,74.51
2018-09-09T12:43:39.339Z,74.22
2018-09-09T12:44:39.325Z,74.12
2018-09-09T12:45:39.311Z,73.28
2018-09-09T12:46:39.295Z,73.77
2018-09-09T12:47:39.282Z,76.19
2018-09-09T12:48:39.265Z,71.54
2018-09-09T12:49:39.252Z,70.47
2018-09-09T12:50:42.241Z,66.60
2018-09-09T12:51:39.223Z,66.60
2018-09-09T12:52:39.206Z,66.08